Tulpan, Russia
Current Conditions -  °F | °C
As of 2:30 PM on Monday 24 Nov 2014 (Local Time) from UUYY Reporting Station
Light Snow Light Snow  
Wind Chill: -4°   Ceiling: 1100
Heat Index:   Visibility: 2.5mi
Dew Point:   Wind: 9mph
Humidity: 79%   Direction: 210°SSW
Pressure: 30.48"   Gusts: 16mph
Location:  61.37°N, 57.42°E
Report Text: UUYY 240930Z 21004G07MPS 4100 -SN BKN011 OVC066 M13/M16 Q1032 NOSIG 1981//51 RMK QFE765/1020
Loading
Personal Weather Stations






























Interactive Weather Map New forecast layout! Learn more

10-Day Weather Forecast

Advertisements
Track Severe Weather on mobile